Time;durP1;ratioP1;P1;durP2;ratioP2;P2;SDS_P1;SDS_P2;PMS_P1;PMS_P2;Temp;Humidity;BMP_temperature;BMP_pressure;BME280_temperature;BME280_humidity;BME280_pressure;Samples;Min_cycle;Max_cycle;Signal;HPM_P1;HPM_P2
2022/06/26 19:26:06;;;;;;;4.05;1.17;;;26.70;64.50;;;;;;5233083;28;20373;-75
2022/06/26 19:28:39;;;;;;;;;;;25.80;66.20;;;;;;5228570;28;20056;-77
2022/06/26 19:31:12;;;;;;;4.13;1.65;;;25.40;68.10;;;;;;4882124;28;10000514;-77
2022/06/26 19:33:44;;;;;;;3.60;1.15;;;25.10;68.80;;;;;;5235269;28;20057;-77
2022/06/26 19:36:17;;;;;;;2.15;1.52;;;24.80;68.90;;;;;;5232333;28;20147;-77
2022/06/26 19:38:49;;;;;;;1.80;1.20;;;24.70;69.70;;;;;;5232226;28;20053;-76
2022/06/26 19:41:22;;;;;;;3.53;1.15;;;24.50;70.50;;;;;;5229321;28;20060;-78
2022/06/26 19:43:54;;;;;;;3.92;1.30;;;24.20;71.50;;;;;;5233900;28;20971;-77
2022/06/26 19:46:28;;;;;;;2.70;1.50;;;24.10;71.60;;;;;;5233229;28;20056;-77
2022/06/26 19:49:01;;;;;;;2.25;1.20;;;24.00;72.10;;;;;;5230945;28;20037;-77
2022/06/26 19:51:33;;;;;;;2.28;1.45;;;23.80;72.50;;;;;;5199631;28;20045;-77
2022/06/26 19:54:06;;;;;;;1.33;1.23;;;23.80;73.40;;;;;;5226383;28;20052;-77
2022/06/26 19:56:38;;;;;;;3.38;1.55;;;23.60;73.40;;;;;;5229338;28;20052;-76
2022/06/26 19:59:10;;;;;;;4.63;1.38;;;23.50;74.00;;;;;;5231557;28;20049;-78
2022/06/26 20:01:43;;;;;;;3.22;1.50;;;23.40;74.30;;;;;;5231934;28;20055;-78
2022/06/26 20:04:16;;;;;;;1.92;1.60;;;23.30;72.10;;;;;;5231800;28;20049;-77
2022/06/26 20:06:48;;;;;;;1.70;1.40;;;23.30;72.90;;;;;;5232758;28;20041;-77
2022/06/26 20:09:20;;;;;;;2.55;1.48;;;23.20;74.30;;;;;;5233763;28;20045;-76
2022/06/26 20:11:53;;;;;;;1.90;1.27;;;23.10;75.40;;;;;;5230593;28;20049;-77
2022/06/26 20:14:26;;;;;;;1.65;1.50;;;23.00;75.00;;;;;;5239805;28;20810;-77
2022/06/26 20:16:58;;;;;;;1.63;1.30;;;22.90;75.20;;;;;;5235339;28;20067;-77
2022/06/26 20:19:31;;;;;;;1.43;1.33;;;22.80;75.70;;;;;;5225490;28;20794;-77
2022/06/26 20:22:04;;;;;;;2.00;1.70;;;22.70;76.10;;;;;;5226789;28;20432;-77
2022/06/26 20:24:36;;;;;;;3.50;1.55;;;22.60;76.30;;;;;;5226533;28;20041;-77
2022/06/26 20:27:09;;;;;;;4.18;1.42;;;22.60;76.20;;;;;;5226443;28;20053;-78
2022/06/26 20:29:42;;;;;;;3.80;1.50;;;22.50;76.20;;;;;;5241110;28;20033;-77
2022/06/26 20:32:14;;;;;;;4.38;1.85;;;22.40;76.70;;;;;;5224792;28;20044;-78
2022/06/26 20:34:47;;;;;;;2.40;1.55;;;22.30;77.20;;;;;;5231845;28;20055;-77
2022/06/26 20:37:19;;;;;;;4.10;1.60;;;22.20;77.20;;;;;;5218950;28;20515;-79
2022/06/26 20:39:52;;;;;;;2.45;1.50;;;22.20;77.50;;;;;;5219124;28;20052;-76
2022/06/26 20:42:24;;;;;;;1.98;1.40;;;22.10;78.10;;;;;;5216078;28;20051;-77
2022/06/26 20:44:57;;;;;;;3.88;1.25;;;22.10;78.40;;;;;;5228258;28;20056;-77
2022/06/26 20:47:29;;;;;;;1.87;1.40;;;22.00;78.50;;;;;;5216419;28;20404;-77
2022/06/26 20:50:03;;;;;;;6.55;1.50;;;21.90;78.60;;;;;;5221133;28;20291;-76
2022/06/26 20:52:35;;;;;;;1.63;1.48;;;21.70;79.00;;;;;;5219636;28;20055;-76
2022/06/26 20:55:09;;;;;;;4.32;1.80;;;21.70;79.40;;;;;;5222229;28;20509;-76
2022/06/26 20:57:41;;;;;;;4.85;1.50;;;21.60;79.80;;;;;;5221410;28;20055;-76
2022/06/26 21:00:14;;;;;;;3.08;1.50;;;21.50;79.90;;;;;;5221735;28;20052;-76
2022/06/26 21:02:47;;;;;;;1.77;1.50;;;21.50;79.70;;;;;;5219033;28;20048;-76
2022/06/26 21:05:22;;;;;;;2.57;1.83;;;21.40;79.60;;;;;;5221499;28;20063;-76
2022/06/26 21:07:55;;;;;;;2.50;1.50;;;21.40;80.00;;;;;;5206710;28;20295;-76
2022/06/26 21:10:28;;;;;;;2.30;1.67;;;21.40;80.20;;;;;;5218632;28;20053;-76
2022/06/26 21:13:00;;;;;;;7.00;1.83;;;21.30;79.50;;;;;;5223251;28;20056;-77
2022/06/26 21:15:33;;;;;;;4.43;1.83;;;21.30;79.70;;;;;;5222940;28;20742;-78
2022/06/26 21:18:09;;;;;;;2.38;1.80;;;21.30;80.20;;;;;;5229127;28;20085;-75
2022/06/26 21:20:41;;;;;;;3.70;1.92;;;21.20;80.60;;;;;;5220569;28;20051;-76
2022/06/26 21:23:14;;;;;;;5.18;1.73;;;21.20;80.30;;;;;;5221600;28;20060;-77
2022/06/26 21:25:46;;;;;;;2.30;1.73;;;21.20;80.50;;;;;;5219264;28;20048;-77
2022/06/26 21:28:19;;;;;;;2.75;1.67;;;21.20;80.00;;;;;;5206052;28;20040;-77
2022/06/26 21:30:51;;;;;;;2.13;1.60;;;21.10;81.10;;;;;;5219742;28;20048;-77
2022/06/26 21:33:25;;;;;;;3.30;1.70;;;21.00;81.50;;;;;;5220569;28;20060;-77
2022/06/26 21:35:58;;;;;;;3.85;1.77;;;21.00;81.70;;;;;;5218711;28;20061;-77
2022/06/26 21:38:30;;;;;;;3.50;1.97;;;21.00;81.40;;;;;;5219768;28;20053;-76
2022/06/26 21:41:03;;;;;;;2.60;1.80;;;21.10;81.40;;;;;;5225058;28;20639;-77
2022/06/26 21:43:36;;;;;;;2.17;1.80;;;21.10;81.70;;;;;;5222483;28;20063;-77
2022/06/26 21:46:09;;;;;;;3.15;2.10;;;21.10;81.10;;;;;;5225428;28;20056;-77
2022/06/26 21:48:41;;;;;;;2.17;2.00;;;21.00;81.50;;;;;;5224454;28;20494;-76
2022/06/26 21:51:14;;;;;;;1.80;1.30;;;20.90;81.90;;;;;;5224205;28;20314;-77
2022/06/26 21:53:47;;;;;;;1.83;1.63;;;20.90;81.90;;;;;;4527026;28;10000353;-77
2022/06/26 21:56:19;;;;;;;2.85;1.52;;;20.90;81.80;;;;;;5224559;28;20500;-77
2022/06/26 21:58:52;;;;;;;3.33;1.37;;;20.90;81.10;;;;;;5225847;28;20052;-76
2022/06/26 22:01:24;;;;;;;5.30;1.63;;;20.90;80.80;;;;;;5225612;28;20048;-77
2022/06/26 22:03:58;;;;;;;2.03;1.15;;;21.10;80.50;;;;;;5223130;28;20052;-77
2022/06/26 22:06:31;;;;;;;1.70;1.40;;;21.00;80.40;;;;;;5225436;28;20044;-77
2022/06/26 22:09:05;;;;;;;2.17;1.40;;;21.00;81.10;;;;;;5226360;28;20492;-76
2022/06/26 22:11:37;;;;;;;4.13;1.50;;;20.90;81.60;;;;;;5228380;28;20041;-77
2022/06/26 22:14:10;;;;;;;4.00;1.50;;;20.80;81.70;;;;;;5228095;28;20044;-77
2022/06/26 22:16:43;;;;;;;1.95;1.58;;;20.70;81.60;;;;;;5225301;28;20064;-77
2022/06/26 22:19:16;;;;;;;8.23;1.42;;;20.70;82.30;;;;;;5224907;28;20053;-76
2022/06/26 22:21:48;;;;;;;1.50;1.38;;;20.70;81.20;;;;;;5214780;28;21028;-77
2022/06/26 22:24:21;;;;;;;1.52;1.42;;;20.70;81.30;;;;;;5220080;28;20514;-77
2022/06/26 22:29:45;;;;;;;1.67;1.58;;;20.70;81.70;;;;;;5220725;28;20435;-76
2022/06/26 22:32:17;;;;;;;3.58;1.73;;;20.70;81.80;;;;;;5221047;28;20059;-77
2022/06/26 22:34:50;;;;;;;1.60;1.30;;;20.60;81.80;;;;;;5223237;28;20501;-76
2022/06/26 22:37:22;;;;;;;3.20;1.40;;;20.50;83.00;;;;;;5228539;28;20544;-76
2022/06/26 22:39:56;;;;;;;1.30;1.20;;;20.40;83.60;;;;;;5239315;28;20053;-76
2022/06/26 22:42:29;;;;;;;1.98;1.48;;;20.40;83.50;;;;;;5233871;28;20059;-76
2022/06/26 22:45:03;;;;;;;1.55;1.40;;;20.40;83.90;;;;;;5230998;28;20044;-76
2022/06/26 22:47:35;;;;;;;1.83;1.15;;;20.40;84.00;;;;;;5209338;28;20056;-76
2022/06/26 22:50:09;;;;;;;3.13;1.50;;;20.40;84.40;;;;;;5243458;28;20052;-77
2022/06/26 22:52:42;;;;;;;2.45;1.48;;;20.30;85.10;;;;;;5242605;28;20041;-77
2022/06/26 22:55:14;;;;;;;2.70;1.50;;;20.30;85.20;;;;;;5243681;28;20068;-77
2022/06/26 22:57:47;;;;;;;4.63;1.45;;;20.20;84.90;;;;;;5237295;28;20040;-76
2022/06/26 23:00:20;;;;;;;1.65;1.52;;;20.20;85.10;;;;;;5230469;28;20056;-76
2022/06/26 23:02:52;;;;;;;2.58;1.50;;;20.10;85.60;;;;;;5225024;28;20182;-77
2022/06/26 23:05:26;;;;;;;1.85;1.40;;;20.00;85.90;;;;;;5224234;28;20068;-77
2022/06/26 23:07:59;;;;;;;4.97;1.92;;;20.00;85.90;;;;;;5225057;28;20049;-76
2022/06/26 23:10:31;;;;;;;1.77;1.08;;;20.00;86.30;;;;;;5224773;28;20041;-77
2022/06/26 23:13:04;;;;;;;2.53;1.48;;;20.00;86.80;;;;;;5222708;28;20071;-77
2022/06/26 23:15:38;;;;;;;1.55;1.40;;;19.90;87.00;;;;;;5222016;28;20056;-76
2022/06/26 23:18:10;;;;;;;6.43;1.40;;;19.90;86.80;;;;;;5222020;28;20049;-78
2022/06/26 23:20:43;;;;;;;3.15;1.25;;;19.90;87.40;;;;;;5221447;28;20507;-77
2022/06/26 23:23:15;;;;;;;6.25;1.50;;;19.80;87.10;;;;;;5220701;28;20053;-77
2022/06/26 23:25:48;;;;;;;1.33;1.23;;;19.80;87.40;;;;;;5216660;28;20168;-78
2022/06/26 23:28:21;;;;;;;2.70;1.40;;;19.70;87.50;;;;;;5218470;28;20041;-77
2022/06/26 23:30:53;;;;;;;2.63;1.67;;;19.70;88.30;;;;;;5213803;28;20051;-77
2022/06/26 23:33:26;;;;;;;5.68;1.83;;;19.70;89.00;;;;;;5217397;28;20045;-77
2022/06/26 23:35:59;;;;;;;4.15;1.55;;;19.60;89.80;;;;;;5215212;28;20052;-77
2022/06/26 23:38:31;;;;;;;3.77;1.57;;;19.60;90.20;;;;;;5221738;28;23437;-77
2022/06/26 23:41:04;;;;;;;1.43;1.33;;;19.50;90.50;;;;;;5214647;28;20511;-77
2022/06/26 23:43:36;;;;;;;1.75;1.65;;;19.50;90.80;;;;;;5218578;28;20060;-76
2022/06/26 23:46:09;;;;;;;1.73;1.27;;;19.40;91.20;;;;;;5216507;28;20053;-77
2022/06/26 23:48:42;;;;;;;5.75;1.60;;;19.40;91.40;;;;;;5210746;28;20045;-77
2022/06/26 23:51:15;;;;;;;2.05;1.50;;;19.30;91.70;;;;;;5221571;28;20621;-76
2022/06/26 23:53:47;;;;;;;3.70;1.60;;;19.20;92.00;;;;;;5215362;28;20037;-77
2022/06/26 23:56:19;;;;;;;3.75;1.60;;;19.20;92.40;;;;;;5220400;28;20572;-78
2022/06/26 23:58:52;;;;;;;3.15;1.45;;;19.20;92.80;;;;;;5212822;28;20469;-77
